Time;durP1;ratioP1;P1;durP2;ratioP2;P2;SDS_P1;SDS_P2;PMS_P1;PMS_P2;Temp;Humidity;BMP_temperature;BMP_pressure;BME280_temperature;BME280_humidity;BME280_pressure;Samples;Min_cycle;Max_cycle;Signal;HPM_P1;HPM_P2
2024/01/04 00:00:39;;;;;;;0.80;0.40;;;;;;;-143.84;77.00;45161.41;5088974;28;20467;-62
2024/01/04 00:03:06;;;;;;;0.80;0.53;;;;;;;-143.84;77.25;45188.06;5088809;28;21006;-62
2024/01/04 00:05:33;;;;;;;0.80;0.40;;;;;;;-143.84;77.29;45169.03;5088810;28;20428;-62
2024/01/04 00:08:00;;;;;;;0.83;0.57;;;;;;;-143.84;77.31;45159.50;5088657;28;20479;-62
2024/01/04 00:10:27;;;;;;;1.20;0.87;;;;;;;-143.84;77.38;45205.22;5069698;28;20444;-62
2024/01/04 00:12:54;;;;;;;0.80;0.40;;;;;;;-143.84;77.04;45193.78;5068486;28;20440;-61
2024/01/04 00:15:23;;;;;;;0.80;0.50;;;;;;;-143.84;77.14;45174.75;5068278;28;20502;-62
2024/01/04 00:17:50;;;;;;;0.80;0.40;;;;;;;-143.84;76.98;45193.78;5068404;28;20456;-62
2024/01/04 00:20:17;;;;;;;0.80;0.40;;;;;;;-143.84;77.04;45148.09;5079462;28;21000;-62
2024/01/04 00:22:44;;;;;;;0.80;0.40;;;;;;;-143.84;76.88;45163.31;5088680;28;20451;-62
2024/01/04 00:25:11;;;;;;;0.80;0.60;;;;;;;-143.84;76.78;45161.41;5088652;28;20496;-62
2024/01/04 00:27:38;;;;;;;0.80;0.50;;;;;;;-143.84;76.60;45193.78;5088666;28;21073;-62
2024/01/04 00:30:07;;;;;;;1.30;1.17;;;;;;;-143.84;76.29;45169.03;5088519;28;20488;-62
2024/01/04 00:32:35;;;;;;;0.90;0.63;;;;;;;-143.84;76.08;45161.41;5104869;28;20467;-61
2024/01/04 00:35:03;;;;;;;1.03;0.93;;;;;;;-143.84;75.91;45144.28;5109099;28;20443;-62
2024/01/04 00:37:30;;;;;;;1.00;0.67;;;;;;;-143.84;75.95;45178.56;5100931;28;20995;-61
2024/01/04 00:39:58;;;;;;;1.67;1.23;;;;;;;-143.84;75.92;45174.75;5088208;28;20458;-62
2024/01/04 00:42:25;;;;;;;0.80;0.60;;;;;;;-143.84;75.82;45151.91;5088578;28;20436;-62
2024/01/04 00:44:52;;;;;;;0.80;0.50;;;;;;;-143.84;76.15;45165.22;5088568;28;20857;-61
2024/01/04 00:47:19;;;;;;;0.80;0.53;;;;;;;-143.84;75.83;45148.09;5091252;28;20479;-62
2024/01/04 00:49:47;;;;;;;0.80;0.40;;;;;;;-143.84;76.22;45172.84;5092605;28;20508;-62
2024/01/04 00:52:14;;;;;;;0.90;0.63;;;;;;;-143.84;76.39;45169.03;5091865;28;20443;-62
2024/01/04 00:54:42;;;;;;;1.30;0.57;;;;;;;-143.84;76.78;45180.47;5091390;28;20846;-62
2024/01/04 00:57:09;;;;;;;0.90;0.60;;;;;;;-143.84;76.89;45191.88;5091579;28;20443;-62
2024/01/04 00:59:36;;;;;;;0.80;0.60;;;;;;;-143.84;76.97;45151.91;5091776;28;20435;-61
2024/01/04 01:02:03;;;;;;;0.80;0.50;;;;;;;-143.84;77.63;45155.69;5083353;28;20941;-62
2024/01/04 01:04:30;;;;;;;0.80;0.60;;;;;;;-143.84;78.20;45197.59;5091457;28;20431;-61
2024/01/04 01:06:59;;;;;;;2.80;1.27;;;;;;;-143.84;78.46;45174.75;5091956;28;20439;-61
2024/01/04 01:09:26;;;;;;;0.80;0.57;;;;;;;-143.84;78.44;45203.31;5092012;28;20436;-62
2024/01/04 01:11:53;;;;;;;1.20;1.10;;;;;;;-143.84;79.02;45169.03;5092043;28;20471;-62
2024/01/04 01:14:20;;;;;;;3.60;1.00;;;;;;;-143.84;79.00;45176.66;5092012;28;20440;-61
2024/01/04 01:16:47;;;;;;;0.90;0.73;;;;;;;-143.84;79.13;45172.84;5091995;28;21026;-61
2024/01/04 01:19:14;;;;;;;0.80;0.70;;;;;;;-143.84;79.27;45191.88;5092075;28;20432;-61
2024/01/04 01:21:41;;;;;;;1.13;0.90;;;;;;;-143.84;79.28;45169.03;5091996;28;20489;-62
2024/01/04 01:24:10;;;;;;;0.87;0.67;;;;;;;-143.84;79.11;45180.47;5091742;28;20443;-61
2024/01/04 01:26:38;;;;;;;2.03;1.10;;;;;;;-143.84;78.90;45195.69;5091840;28;20471;-61
2024/01/04 01:29:05;;;;;;;1.00;0.73;;;;;;;-143.84;78.88;45157.59;5091592;28;20490;-62
2024/01/04 01:31:32;;;;;;;1.47;0.63;;;;;;;-143.84;79.01;45172.84;5099176;28;20438;-62
2024/01/04 01:33:59;;;;;;;0.80;0.40;;;;;;;-143.84;78.98;45191.88;5112129;28;20867;-61
2024/01/04 01:36:26;;;;;;;0.80;0.50;;;;;;;-143.84;78.65;45195.69;5112294;28;20461;-62
2024/01/04 01:38:53;;;;;;;0.80;0.53;;;;;;;-143.84;78.73;45188.06;5111888;28;20439;-62
2024/01/04 01:41:22;;;;;;;1.10;1.00;;;;;;;-143.84;78.66;45209.03;5111947;28;20871;-62
2024/01/04 01:43:49;;;;;;;0.80;0.40;;;;;;;-143.84;78.53;45169.03;5112048;28;20439;-62
2024/01/04 01:46:16;;;;;;;1.50;0.73;;;;;;;-143.84;78.46;45188.06;5112171;28;20438;-62
2024/01/04 01:48:43;;;;;;;0.80;0.40;;;;;;;-143.84;78.45;45178.56;5111801;28;20475;-61
2024/01/04 01:51:11;;;;;;;0.90;0.50;;;;;;;-143.84;78.46;45199.50;5111943;28;20431;-62
2024/01/04 01:53:39;;;;;;;0.80;0.40;;;;;;;-143.84;78.77;45178.56;5111664;28;20848;-62
2024/01/04 01:56:06;;;;;;;0.80;0.40;;;;;;;-143.84;78.47;45163.31;5111490;28;20447;-62
2024/01/04 01:58:36;;;;;;;0.80;0.43;;;;;;;-143.84;78.43;45170.94;5110817;28;20438;-62
2024/01/04 02:01:04;;;;;;;0.80;0.53;;;;;;;-143.84;78.17;45184.25;5111485;28;20993;-61
2024/01/04 02:03:31;;;;;;;0.80;0.50;;;;;;;-143.84;77.69;45159.50;5111617;28;20439;-62
2024/01/04 02:05:58;;;;;;;0.80;0.50;;;;;;;-143.84;77.37;45163.31;5111368;28;20439;-61
2024/01/04 02:08:25;;;;;;;0.80;0.40;;;;;;;-143.84;77.63;45163.31;5111371;28;20474;-62
2024/01/04 02:10:52;;;;;;;0.90;0.67;;;;;;;-143.84;77.44;45170.94;5111381;28;20484;-62
2024/01/04 02:13:19;;;;;;;0.80;0.50;;;;;;;-143.84;77.80;45199.50;5111589;28;20915;-62
2024/01/04 02:15:48;;;;;;;1.63;0.60;;;;;;;-143.84;77.90;45169.03;5111093;28;20447;-62
2024/01/04 02:18:16;;;;;;;1.40;0.97;;;;;;;-143.84;77.43;45165.22;5111328;28;20457;-62
2024/01/04 02:20:43;;;;;;;0.80;0.50;;;;;;;-143.84;77.66;45180.47;5096328;28;20528;-61
2024/01/04 02:23:17;;;;;;;0.97;0.87;;;;;;;-143.84;77.92;45174.75;5090817;28;20452;-62
2024/01/04 02:25:44;;;;;;;0.90;0.70;;;;;;;-143.84;78.07;45191.88;5090995;28;20444;-61
2024/01/04 02:28:11;;;;;;;1.40;0.97;;;;;;;-143.84;77.40;45195.69;5090508;28;20509;-61
2024/01/04 02:30:38;;;;;;;0.80;0.50;;;;;;;-143.84;77.66;45148.09;5090235;28;20493;-61
2024/01/04 02:33:05;;;;;;;1.37;1.27;;;;;;;-143.84;77.77;45150.00;5070375;28;20786;-62
2024/01/04 02:35:33;;;;;;;0.80;0.60;;;;;;;-143.84;77.86;45172.84;5069947;28;20444;-61
2024/01/04 02:38:00;;;;;;;0.80;0.60;;;;;;;-143.84;77.97;45140.47;5070018;28;20445;-62
2024/01/04 02:40:30;;;;;;;0.90;0.70;;;;;;;-143.84;77.85;45174.75;5070158;28;20457;-61
2024/01/04 02:42:57;;;;;;;0.80;0.40;;;;;;;-143.84;78.25;45189.97;5070015;28;20518;-62
2024/01/04 02:45:24;;;;;;;1.13;1.03;;;;;;;-143.84;78.05;45170.94;5069646;28;20452;-61
2024/01/04 02:47:51;;;;;;;0.80;0.50;;;;;;;-143.84;78.34;45186.16;5069663;28;20530;-61
2024/01/04 02:50:19;;;;;;;0.80;0.50;;;;;;;-143.84;78.50;45180.47;5070032;28;20893;-61
2024/01/04 02:52:46;;;;;;;0.80;0.50;;;;;;;-143.84;78.45;45178.56;5070026;28;20433;-61
2024/01/04 02:55:13;;;;;;;0.90;0.80;;;;;;;-143.84;78.43;45188.06;5069896;28;20444;-62
2024/01/04 02:57:42;;;;;;;1.20;0.80;;;;;;;-143.84;78.39;45174.75;5069876;28;20441;-62
2024/01/04 03:00:10;;;;;;;0.80;0.50;;;;;;;-143.84;78.31;45170.94;5069892;28;21086;-61
2024/01/04 03:02:37;;;;;;;0.80;0.50;;;;;;;-143.84;78.68;45186.16;5069617;28;20433;-62
2024/01/04 03:05:05;;;;;;;0.80;0.50;;;;;;;-143.84;78.74;45159.50;5069356;28;20514;-62
2024/01/04 03:07:33;;;;;;;0.80;0.40;;;;;;;-143.84;78.72;45165.22;5069621;28;20498;-62
2024/01/04 03:10:01;;;;;;;0.80;0.50;;;;;;;-143.84;78.72;45172.84;5068573;28;20437;-62
2024/01/04 03:12:28;;;;;;;0.80;0.50;;;;;;;-143.84;78.88;45186.16;5069569;28;20440;-62
2024/01/04 03:14:58;;;;;;;0.80;0.53;;;;;;;-143.84;78.67;45180.47;5069567;28;21067;-61
2024/01/04 03:17:25;;;;;;;0.80;0.57;;;;;;;-143.84;78.53;45178.56;5069762;28;21177;-62
2024/01/04 03:19:52;;;;;;;0.90;0.60;;;;;;;-143.84;78.47;45159.50;5084598;28;20486;-61
2024/01/04 03:22:20;;;;;;;2.03;0.97;;;;;;;-143.84;78.36;45172.84;5110257;28;20520;-61
2024/01/04 03:24:47;;;;;;;0.80;0.40;;;;;;;-143.84;78.77;45167.13;5110045;28;20438;-61
2024/01/04 03:27:14;;;;;;;0.80;0.40;;;;;;;-143.84;78.60;45151.91;5110151;28;20496;-62
2024/01/04 03:29:41;;;;;;;0.90;0.63;;;;;;;-143.84;78.20;45167.13;5109930;28;20544;-62
2024/01/04 03:32:09;;;;;;;0.80;0.60;;;;;;;-143.84;77.94;45163.31;5110243;28;20911;-61
2024/01/04 03:34:36;;;;;;;0.80;0.50;;;;;;;-143.84;77.78;45195.69;5109905;28;20449;-61
2024/01/04 03:37:04;;;;;;;0.80;0.57;;;;;;;-143.84;77.79;45201.41;5109540;28;20971;-61
2024/01/04 03:39:31;;;;;;;0.80;0.50;;;;;;;-143.84;77.69;45167.13;5109695;28;20477;-62
2024/01/04 03:42:00;;;;;;;0.80;0.47;;;;;;;-143.84;77.34;45159.50;5109666;28;20435;-61
2024/01/04 03:44:27;;;;;;;0.80;0.40;;;;;;;-143.84;76.95;45161.41;5109413;28;20951;-62
2024/01/04 03:46:54;;;;;;;0.80;0.40;;;;;;;-143.84;76.93;45167.13;5109464;28;20461;-62
2024/01/04 03:49:23;;;;;;;0.80;0.40;;;;;;;-143.84;76.50;45189.97;5109408;28;21014;-62
2024/01/04 03:51:50;;;;;;;0.80;0.60;;;;;;;-143.84;76.63;45193.78;5109358;28;20438;-62
2024/01/04 03:54:17;;;;;;;0.80;0.50;;;;;;;-143.84;76.86;45186.16;5109260;28;21144;-61
2024/01/04 03:56:44;;;;;;;0.80;0.40;;;;;;;-143.84;76.75;45180.47;5109205;28;20516;-61
2024/01/04 03:59:11;;;;;;;0.80;0.60;;;;;;;-143.84;76.66;45189.97;5109199;28;20472;-61
2024/01/04 04:01:44;;;;;;;0.80;0.57;;;;;;;-143.84;76.58;45140.47;5109311;28;20874;-62
2024/01/04 04:04:11;;;;;;;1.00;0.70;;;;;;;-143.84;76.75;45146.19;5109072;28;20940;-61
2024/01/04 04:06:40;;;;;;;0.80;0.43;;;;;;;-143.84;76.53;45186.16;5109224;28;20495;-61
2024/01/04 04:09:08;;;;;;;1.73;1.53;;;;;;;-143.84;76.82;45191.88;5109173;28;20471;-62
2024/01/04 04:11:35;;;;;;;0.80;0.50;;;;;;;-143.84;77.04;45197.59;5109078;28;20438;-62
2024/01/04 04:14:02;;;;;;;1.10;1.00;;;;;;;-143.84;77.13;45180.47;5108880;28;20474;-62
2024/01/04 04:16:29;;;;;;;0.80;0.40;;;;;;;-143.84;77.17;45199.50;5109188;28;20552;-62
2024/01/04 04:18:57;;;;;;;1.10;0.80;;;;;;;-143.84;77.27;45189.97;5108791;28;20786;-62
2024/01/04 04:21:24;;;;;;;1.00;0.60;;;;;;;-143.84;77.12;45195.69;5108598;28;20504;-62
2024/01/04 04:23:53;;;;;;;0.90;0.80;;;;;;;-143.84;77.06;45186.16;5108947;28;20495;-62
2024/01/04 04:26:21;;;;;;;0.80;0.50;;;;;;;-143.84;76.95;45199.50;5072514;28;20538;-58
2024/01/04 04:28:48;;;;;;;0.80;0.60;;;;;;;-143.84;76.95;45153.81;5069186;28;20477;-58
2024/01/04 04:31:15;;;;;;;0.80;0.63;;;;;;;-143.84;76.84;45184.25;5069315;28;20437;-58
2024/01/04 04:33:44;;;;;;;0.80;0.60;;;;;;;-143.84;76.78;45176.66;5069289;28;20445;-58
2024/01/04 04:36:12;;;;;;;0.80;0.40;;;;;;;-143.84;76.83;45180.47;5069173;28;20494;-58
2024/01/04 04:38:40;;;;;;;0.97;0.87;;;;;;;-143.84;76.87;45161.41;5068844;28;20880;-58
2024/01/04 04:41:09;;;;;;;0.80;0.53;;;;;;;-143.84;76.71;45169.03;5068891;28;20919;-58
2024/01/04 04:43:36;;;;;;;0.80;0.40;;;;;;;-143.84;76.77;45167.13;5069312;28;20441;-58
2024/01/04 04:46:09;;;;;;;0.90;0.57;;;;;;;-143.84;76.61;45178.56;5068691;28;20494;-58
2024/01/04 04:48:36;;;;;;;0.80;0.50;;;;;;;-143.84;76.41;45151.91;5068666;28;20473;-58
2024/01/04 04:51:03;;;;;;;0.80;0.40;;;;;;;-143.84;76.32;45176.66;5068955;28;20491;-58
2024/01/04 04:53:30;;;;;;;0.80;0.50;;;;;;;-143.84;76.33;45170.94;5069155;28;20433;-58
2024/01/04 04:55:58;;;;;;;0.80;0.50;;;;;;;-143.84;76.45;45163.31;5072395;28;20455;-60
2024/01/04 04:58:26;;;;;;;0.80;0.40;;;;;;;-143.84;76.30;45195.69;5089872;28;20447;-59
2024/01/04 05:00:53;;;;;;;1.13;1.03;;;;;;;-143.84;76.32;45170.94;5099858;28;20432;-60
2024/01/04 05:03:20;;;;;;;0.80;0.40;;;;;;;-143.84;76.29;45165.22;5088852;28;20515;-59
2024/01/04 05:05:48;;;;;;;0.80;0.40;;;;;;;-143.84;76.10;45142.38;5089575;28;20432;-60
2024/01/04 05:08:15;;;;;;;0.90;0.60;;;;;;;-143.84;76.01;45180.47;5085918;28;20443;-59
2024/01/04 05:10:42;;;;;;;0.80;0.60;;;;;;;-143.84;75.86;45184.25;5088552;28;20485;-60
2024/01/04 05:13:09;;;;;;;0.80;0.50;;;;;;;-143.84;75.89;45186.16;5089138;28;20438;-59
2024/01/04 05:15:38;;;;;;;0.80;0.40;;;;;;;-143.84;75.51;45188.06;5088636;28;20849;-60
2024/01/04 05:18:08;;;;;;;0.80;0.50;;;;;;;-143.84;75.56;45180.47;5088573;28;20440;-59
2024/01/04 05:20:35;;;;;;;1.63;0.90;;;;;;;-143.84;75.30;45151.91;5096474;28;20996;-59
2024/01/04 05:23:02;;;;;;;0.80;0.50;;;;;;;-143.84;75.39;45161.41;5108752;28;20496;-59
2024/01/04 05:25:30;;;;;;;1.97;1.07;;;;;;;-143.84;75.65;45163.31;5109045;28;20840;-60
2024/01/04 05:27:57;;;;;;;0.80;0.50;;;;;;;-143.84;75.54;45174.75;5108999;28;20492;-59
2024/01/04 05:30:24;;;;;;;1.43;0.70;;;;;;;-143.84;75.64;45203.31;5107956;28;20478;-59
2024/01/04 05:32:52;;;;;;;0.80;0.40;;;;;;;-143.84;75.36;45184.25;5108342;28;20507;-59
2024/01/04 05:35:20;;;;;;;1.77;0.70;;;;;;;-143.84;75.41;45186.16;5112099;28;20450;-59
2024/01/04 05:37:47;;;;;;;1.00;0.57;;;;;;;-143.84;75.33;45174.75;5111988;28;21034;-59
2024/01/04 05:40:14;;;;;;;0.80;0.50;;;;;;;-143.84;74.86;45174.75;5111833;28;20462;-59
2024/01/04 05:42:41;;;;;;;0.97;0.87;;;;;;;-143.84;74.81;45178.56;5111102;28;20442;-59
2024/01/04 05:45:09;;;;;;;0.80;0.40;;;;;;;-143.84;74.68;45172.84;5112092;28;20443;-59
2024/01/04 05:47:37;;;;;;;0.80;0.40;;;;;;;-143.84;74.72;45172.84;5111867;28;20435;-59
2024/01/04 05:50:06;;;;;;;0.80;0.50;;;;;;;-143.84;74.41;45165.22;5111897;28;20566;-60
2024/01/04 05:52:33;;;;;;;0.80;0.50;;;;;;;-143.84;74.35;45186.16;5112369;28;20783;-59
2024/01/04 05:55:01;;;;;;;0.80;0.50;;;;;;;-143.84;74.22;45153.81;5112123;28;20450;-59
2024/01/04 05:57:28;;;;;;;0.80;0.40;;;;;;;-143.84;73.82;45172.84;5110795;28;20443;-59
2024/01/04 05:59:55;;;;;;;0.80;0.40;;;;;;;-143.84;73.69;45199.50;5112404;28;20463;-59
2024/01/04 06:02:26;;;;;;;0.80;0.50;;;;;;;-143.84;73.48;45167.13;5112375;28;20526;-59
2024/01/04 06:04:53;;;;;;;0.80;0.53;;;;;;;-143.84;72.99;45151.91;5112132;28;20447;-59
2024/01/04 06:07:22;;;;;;;0.80;0.40;;;;;;;-143.84;72.88;45170.94;5112108;28;20566;-59
2024/01/04 06:09:49;;;;;;;0.80;0.60;;;;;;;-143.84;73.02;45174.75;5111999;28;20474;-59
2024/01/04 06:12:16;;;;;;;0.80;0.47;;;;;;;-143.84;72.59;45191.88;5111974;28;20435;-60
2024/01/04 06:14:43;;;;;;;0.80;0.40;;;;;;;-143.84;72.35;45170.94;5111947;28;20446;-59
2024/01/04 06:17:10;;;;;;;0.80;0.50;;;;;;;-143.84;72.28;45148.09;5111735;28;20525;-59
2024/01/04 06:19:37;;;;;;;1.43;0.70;;;;;;;-143.84;72.07;45165.22;5111677;28;20512;-58
2024/01/04 06:22:05;;;;;;;0.80;0.60;;;;;;;-143.84;71.39;45189.97;5111784;28;20492;-59
2024/01/04 06:24:33;;;;;;;5.07;1.80;;;;;;;-143.84;71.08;45188.06;5111620;28;20435;-59
2024/01/04 06:27:00;;;;;;;0.80;0.40;;;;;;;-143.84;70.99;45146.19;5111969;28;20491;-60
2024/01/04 06:29:27;;;;;;;0.80;0.40;;;;;;;-143.84;70.89;45172.84;5111360;28;20470;-59
2024/01/04 06:31:54;;;;;;;0.80;0.50;;;;;;;-143.84;70.57;45170.94;5111285;28;20515;-59
2024/01/04 06:34:22;;;;;;;0.80;0.47;;;;;;;-143.84;70.14;45157.59;5111041;28;20451;-58
2024/01/04 06:36:49;;;;;;;1.33;0.70;;;;;;;-143.84;69.39;45174.75;5111409;28;20492;-60
2024/01/04 06:39:16;;;;;;;0.80;0.50;;;;;;;-143.84;69.46;45172.84;5111490;28;20443;-59
2024/01/04 06:41:45;;;;;;;0.80;0.60;;;;;;;-143.84;68.04;45167.13;5111433;28;20813;-59
2024/01/04 06:44:12;;;;;;;0.80;0.60;;;;;;;-143.84;67.58;45163.31;5110798;28;20474;-59
2024/01/04 06:46:39;;;;;;;0.80;0.40;;;;;;;-143.84;66.94;45186.16;5111245;28;20446;-59
2024/01/04 06:49:07;;;;;;;0.80;0.40;;;;;;;-143.84;65.84;45165.22;5110914;28;20475;-59
2024/01/04 06:51:34;;;;;;;0.80;0.53;;;;;;;-143.84;65.38;45159.50;5110929;28;20443;-59
2024/01/04 06:54:01;;;;;;;0.80;0.50;;;;;;;-143.84;65.11;45144.28;5110941;28;20427;-59
2024/01/04 06:56:28;;;;;;;0.80;0.43;;;;;;;-143.84;64.05;45155.69;5110847;28;20450;-59
2024/01/04 06:58:57;;;;;;;0.80;0.50;;;;;;;-143.84;62.43;45155.69;5110808;28;20435;-59
2024/01/04 07:01:24;;;;;;;2.40;0.60;;;;;;;-143.84;61.16;45172.84;5110755;28;20443;-59
2024/01/04 07:03:51;;;;;;;0.80;0.40;;;;;;;-143.84;60.45;45144.28;5110724;28;20439;-60
2024/01/04 07:06:18;;;;;;;0.80;0.50;;;;;;;-143.84;60.07;45167.13;5110728;28;21013;-59
2024/01/04 07:08:46;;;;;;;0.80;0.60;;;;;;;-143.84;59.51;45136.66;5110686;28;20435;-60
2024/01/04 07:11:13;;;;;;;0.80;0.40;;;;;;;-143.84;58.44;45159.50;5111100;28;21280;-60
2024/01/04 07:13:40;;;;;;;0.80;0.47;;;;;;;-143.84;57.43;45136.66;5110865;28;20450;-60
2024/01/04 07:16:09;;;;;;;0.80;0.50;;;;;;;-143.84;55.74;45144.28;5110923;28;20543;-59
2024/01/04 07:18:37;;;;;;;0.80;0.40;;;;;;;-143.84;55.00;45144.28;5110509;28;20525;-59
2024/01/04 07:21:05;;;;;;;1.10;0.50;;;;;;;-143.84;54.97;45148.09;5110189;28;20486;-60
2024/01/04 07:23:32;;;;;;;0.80;0.33;;;;;;;-143.84;54.79;45146.19;5110434;28;20976;-60
2024/01/04 07:25:59;;;;;;;0.80;0.40;;;;;;;-143.84;54.82;45125.22;5110305;28;20448;-59
2024/01/04 07:28:26;;;;;;;0.80;0.40;;;;;;;-143.84;54.33;45140.47;5110790;28;20993;-59
2024/01/04 07:30:53;;;;;;;0.80;0.40;;;;;;;-143.84;52.38;45121.44;5110402;28;20540;-59
2024/01/04 07:33:23;;;;;;;0.90;0.70;;;;;;;-143.84;51.85;45110.00;5110530;28;20492;-60
2024/01/04 07:35:50;;;;;;;0.80;0.40;;;;;;;-143.84;51.68;45148.09;5110281;28;20504;-60
2024/01/04 07:38:17;;;;;;;1.27;0.67;;;;;;;-143.84;50.51;45148.09;5110022;28;20997;-59
2024/01/04 07:40:44;;;;;;;0.80;0.60;;;;;;;-143.84;50.81;45117.63;5110151;28;20447;-59
2024/01/04 07:43:11;;;;;;;0.80;0.40;;;;;;;-143.84;50.41;45159.50;5110273;28;20490;-59
2024/01/04 07:45:39;;;;;;;0.80;0.60;;;;;;;-143.84;50.96;45144.28;5110111;28;20530;-60
2024/01/04 07:48:06;;;;;;;0.90;0.67;;;;;;;-143.84;50.82;45153.81;5109890;28;21145;-59
2024/01/04 07:50:35;;;;;;;0.80;0.50;;;;;;;-143.84;50.74;45142.38;5109676;28;20532;-60
2024/01/04 07:53:02;;;;;;;0.80;0.40;;;;;;;-143.84;50.53;45142.38;5110016;28;20496;-59
2024/01/04 07:55:29;;;;;;;0.90;0.67;;;;;;;-143.84;50.01;45129.03;5109349;28;20435;-59
2024/01/04 07:57:56;;;;;;;0.80;0.40;;;;;;;-143.84;49.83;45130.94;5109580;28;20462;-60
2024/01/04 08:00:23;;;;;;;0.90;0.70;;;;;;;-143.84;49.52;45138.56;5109525;28;20462;-59
2024/01/04 08:02:51;;;;;;;1.20;1.03;;;;;;;-143.84;49.64;45117.63;5109372;28;20431;-60
2024/01/04 08:05:18;;;;;;;1.53;1.40;;;;;;;-143.84;48.45;45136.66;5109372;28;20959;-60
2024/01/04 08:07:47;;;;;;;0.90;0.70;;;;;;;-143.84;48.68;45121.44;5109501;28;20435;-59
2024/01/04 08:10:14;;;;;;;1.07;0.90;;;;;;;-143.84;48.00;45148.09;5109412;28;20478;-59
2024/01/04 08:12:42;;;;;;;1.00;0.57;;;;;;;-143.84;47.91;45130.94;5109483;28;21009;-60
2024/01/04 08:15:11;;;;;;;0.90;0.63;;;;;;;-143.84;48.26;45115.72;5109387;28;20439;-59
2024/01/04 08:17:38;;;;;;;1.10;0.50;;;;;;;-143.84;48.25;45136.66;5109622;28;20462;-59
2024/01/04 08:20:06;;;;;;;0.97;0.87;;;;;;;-143.84;48.43;45119.53;5109214;28;20478;-59
2024/01/04 08:22:33;;;;;;;0.80;0.53;;;;;;;-143.84;48.31;45111.91;5109361;28;20484;-60
2024/01/04 08:25:01;;;;;;;1.27;0.97;;;;;;;-143.84;48.83;45136.66;5109450;28;20492;-59
2024/01/04 08:27:28;;;;;;;1.47;0.87;;;;;;;-143.84;48.96;45132.84;5109173;28;20534;-60
2024/01/04 08:29:56;;;;;;;2.33;1.00;;;;;;;-143.84;49.03;45136.66;5109694;28;20478;-59
2024/01/04 08:32:23;;;;;;;0.90;0.73;;;;;;;-143.84;48.83;45132.84;5109357;28;20943;-61
2024/01/04 08:34:50;;;;;;;4.13;0.77;;;;;;;-143.84;48.30;45117.63;5109467;28;20500;-60
2024/01/04 08:37:18;;;;;;;0.87;0.50;;;;;;;-143.84;48.31;45100.47;5109160;28;20491;-60
2024/01/04 08:39:46;;;;;;;1.00;0.70;;;;;;;-143.84;48.40;45132.84;5109403;28;20512;-59
2024/01/04 08:42:15;;;;;;;0.90;0.60;;;;;;;-143.84;46.26;45123.34;5109440;28;20475;-59
2024/01/04 08:44:42;;;;;;;0.90;0.60;;;;;;;-143.84;46.26;45106.19;5109282;28;20453;-59
2024/01/04 08:47:09;;;;;;;1.10;1.00;;;;;;;-143.84;46.51;45111.91;5109265;28;20439;-60
2024/01/04 08:49:37;;;;;;;1.00;0.67;;;;;;;-143.84;46.02;45127.13;5108762;28;20435;-60
2024/01/04 08:52:05;;;;;;;0.90;0.60;;;;;;;-143.84;45.34;45121.44;5109138;28;20447;-60
2024/01/04 08:54:32;;;;;;;2.30;0.60;;;;;;;-143.84;44.82;45117.63;5109013;28;20805;-59
2024/01/04 08:56:59;;;;;;;0.80;0.50;;;;;;;-143.84;45.30;45127.13;5108951;28;20443;-59
2024/01/04 08:59:27;;;;;;;1.10;0.60;;;;;;;-143.84;45.24;45125.22;5109042;28;20439;-59
2024/01/04 09:01:55;;;;;;;0.90;0.60;;;;;;;-143.84;44.81;45092.88;5109085;28;20951;-60
2024/01/04 09:04:22;;;;;;;0.90;0.77;;;;;;;-143.84;45.17;45117.63;5108850;28;20450;-60
2024/01/04 09:06:49;;;;;;;1.10;0.80;;;;;;;-143.84;44.89;45104.28;5108958;28;20841;-59
2024/01/04 09:09:16;;;;;;;3.37;0.60;;;;;;;-143.84;44.33;45096.66;5111535;28;20854;-60
2024/01/04 09:11:48;;;;;;;1.10;0.50;;;;;;;-143.84;43.75;45100.47;5112575;28;20527;-60
2024/01/04 09:14:15;;;;;;;1.47;0.90;;;;;;;-143.84;44.03;45106.19;5112811;28;20471;-60
2024/01/04 09:16:46;;;;;;;0.83;0.60;;;;;;;-143.84;43.99;45111.91;5113047;28;20442;-60
2024/01/04 09:19:16;;;;;;;2.20;0.70;;;;;;;-143.84;43.04;45108.09;5112486;28;20453;-60
2024/01/04 09:21:44;;;;;;;1.37;0.60;;;;;;;-143.84;43.31;45094.78;5112569;28;20496;-60
2024/01/04 09:24:13;;;;;;;0.90;0.70;;;;;;;-143.84;43.18;45087.16;5112430;28;20495;-60
2024/01/04 09:26:40;;;;;;;0.80;0.50;;;;;;;-143.84;43.86;45108.09;5112655;28;20431;-59
2024/01/04 09:29:08;;;;;;;0.90;0.67;;;;;;;-143.84;43.73;45090.97;5112560;28;20439;-59
2024/01/04 09:31:35;;;;;;;0.80;0.40;;;;;;;-143.84;43.18;45094.78;5112548;28;20478;-60
2024/01/04 09:34:04;;;;;;;0.90;0.70;;;;;;;-143.84;43.60;45094.78;5112401;28;20521;-59
2024/01/04 09:36:31;;;;;;;0.80;0.50;;;;;;;-143.84;43.37;45094.78;5112150;28;20435;-60
2024/01/04 09:38:58;;;;;;;0.80;0.50;;;;;;;-143.84;43.69;45134.75;5112333;28;20439;-60
2024/01/04 09:41:28;;;;;;;0.93;0.83;;;;;;;-143.84;43.79;45134.75;5112203;28;20963;-59
2024/01/04 09:43:57;;;;;;;0.97;0.87;;;;;;;-143.84;44.30;45132.84;5112375;28;20439;-60
2024/01/04 09:46:26;;;;;;;1.30;0.70;;;;;;;-143.84;44.75;45121.44;5112048;28;20443;-60
2024/01/04 09:48:59;;;;;;;2.33;1.13;;;;;;;-143.84;45.05;45119.53;5111750;28;20552;-62
2024/01/04 09:51:29;;;;;;;0.80;0.40;;;;;;;-143.84;44.32;45110.00;5111798;28;20832;-62
2024/01/04 09:53:56;;;;;;;1.77;0.93;;;;;;;-143.84;45.42;45096.66;5111937;28;20868;-62
2024/01/04 09:56:24;;;;;;;0.80;0.50;;;;;;;-143.84;44.83;45123.34;5111667;28;20435;-62
2024/01/04 09:58:52;;;;;;;1.17;0.90;;;;;;;-143.84;44.78;45119.53;5111597;28;20990;-62
2024/01/04 10:01:21;;;;;;;1.33;0.90;;;;;;;-143.84;44.81;45123.34;5111643;28;20450;-62
2024/01/04 10:03:49;;;;;;;2.60;1.33;;;;;;;-143.84;45.78;45098.56;5110921;28;20435;-61
2024/01/04 10:06:23;;;;;;;0.90;0.57;;;;;;;-143.84;45.15;45125.22;5110549;28;20467;-62
2024/01/04 10:09:04;;;;;;;1.07;0.70;;;;;;;-143.84;46.14;45110.00;5110382;28;20442;-62
2024/01/04 10:11:38;;;;;;;0.90;0.60;;;;;;;-143.84;44.66;45106.19;5110772;28;21009;-62
2024/01/04 10:14:06;;;;;;;1.03;0.70;;;;;;;-143.84;44.55;45113.81;5110888;28;20482;-62
2024/01/04 10:16:34;;;;;;;1.50;0.80;;;;;;;-143.84;44.18;45121.44;5110562;28;20446;-62
2024/01/04 10:19:03;;;;;;;0.90;0.60;;;;;;;-143.84;44.33;45094.78;5110554;28;20500;-62
2024/01/04 10:21:33;;;;;;;0.90;0.50;;;;;;;-143.84;44.39;45134.75;5111134;28;20487;-62
2024/01/04 10:24:03;;;;;;;0.90;0.73;;;;;;;-143.84;44.58;45098.56;5111094;28;20443;-62
2024/01/04 10:26:30;;;;;;;1.00;0.77;;;;;;;-143.84;44.09;45110.00;5110991;28;20449;-61
2024/01/04 10:28:59;;;;;;;1.33;1.23;;;;;;;-143.84;44.12;45083.34;5111473;28;20443;-62
2024/01/04 10:31:26;;;;;;;0.80;0.40;;;;;;;-143.84;43.53;45110.00;5111174;28;20479;-61
2024/01/04 10:33:57;;;;;;;0.90;0.60;;;;;;;-143.84;43.20;45110.00;5111394;28;20443;-62
2024/01/04 10:36:28;;;;;;;1.67;0.90;;;;;;;-143.84;42.88;45102.38;5110790;28;20527;-61
2024/01/04 10:38:58;;;;;;;2.47;1.83;;;;;;;-143.84;43.47;45129.03;5110533;28;20992;-61
2024/01/04 10:41:28;;;;;;;1.00;0.50;;;;;;;-143.84;42.39;45106.19;5110711;28;20471;-61
2024/01/04 10:44:05;;;;;;;2.17;0.90;;;;;;;-143.84;43.10;45094.78;5110709;28;20443;-61
2024/01/04 10:46:34;;;;;;;0.90;0.77;;;;;;;-143.84;43.22;45115.72;5110723;28;20442;-61
2024/01/04 10:49:02;;;;;;;0.80;0.40;;;;;;;-143.84;42.75;45132.84;5110405;28;20467;-62
2024/01/04 10:51:31;;;;;;;0.90;0.40;;;;;;;-143.84;42.39;45119.53;5110544;28;20946;-61
2024/01/04 10:54:01;;;;;;;2.80;0.60;;;;;;;-143.84;43.11;45090.97;5110500;28;20522;-61
2024/01/04 10:56:32;;;;;;;1.77;1.37;;;;;;;-143.84;43.26;45121.44;5110450;28;20434;-61
2024/01/04 10:59:00;;;;;;;1.00;0.50;;;;;;;-143.84;43.35;45094.78;5110550;28;20546;-61
2024/01/04 11:01:28;;;;;;;1.23;0.83;;;;;;;-143.84;42.99;45111.91;5110322;28;20435;-61
2024/01/04 11:03:56;;;;;;;0.97;0.87;;;;;;;-143.84;43.32;45098.56;5110374;28;20435;-62
2024/01/04 11:06:25;;;;;;;0.90;0.70;;;;;;;-143.84;43.17;45089.06;5110527;28;20435;-61
2024/01/04 11:08:55;;;;;;;0.80;0.50;;;;;;;-143.84;42.63;45083.34;5110795;28;20435;-61
2024/01/04 11:11:25;;;;;;;1.10;0.70;;;;;;;-143.84;42.62;45098.56;5110171;28;20482;-61
2024/01/04 11:13:54;;;;;;;0.97;0.73;;;;;;;-143.84;42.71;45075.72;5110102;28;20431;-61
2024/01/04 11:16:35;;;;;;;1.90;1.80;;;;;;;-143.84;42.52;45090.97;5110031;28;20530;-61
2024/01/04 11:19:15;;;;;;;0.90;0.57;;;;;;;-143.84;43.56;45134.75;5110120;28;21177;-61